.
WxDataArchive / Data Records for 2011-08-17
2011-08-16 August 2011 2011-08-18

Data Records for Wednesday, 17 August 2011

Time	Temp	Chill	HIndex	Humid	Dewpt	 Wind 	HiWind	WindDir	Rain 	Barom 
-----	----	-----	------	-----	-----	------	------	-------	-----	----- 
00:00	65.3	65.3	65.3	79	58.6	0	0	---	0.00	30.062 
00:05	65.2	65.2	65.2	80	58.9	0	0	---	0.00	30.062 
00:10	65.0	65.0	65.0	80	58.7	0	0	---	0.00	30.062 
00:15	64.8	64.8	64.8	81	58.8	0	0	---	0.00	30.061 
00:20	64.7	64.7	64.7	81	58.7	0	0	---	0.00	30.061 
00:25	64.5	64.5	64.5	82	58.9	0	0	---	0.00	30.061 
00:30	64.2	64.2	64.2	82	58.6	0	0	---	0.00	30.062 
00:35	64.2	64.2	64.2	83	58.9	0	0	---	0.00	30.062 
00:40	64.0	64.0	64.0	83	58.7	0	0	---	0.00	30.062 
00:45	63.9	63.9	63.9	83	58.6	0	0	---	0.00	30.063 
00:50	63.9	63.9	63.9	83	58.6	0	0	---	0.00	30.063 
00:55	63.7	63.7	63.7	83	58.4	0	0	---	0.00	30.063 
01:00	63.5	63.5	63.5	84	58.6	0	0	---	0.00	30.062 
01:05	63.2	63.2	63.2	85	58.6	0	0	---	0.00	30.062 
01:10	63.1	63.1	63.1	85	58.5	0	0	---	0.00	30.062 
01:15	62.9	62.9	62.9	85	58.3	0	0	---	0.00	30.061 
01:20	62.9	62.9	62.9	85	58.3	0	0	---	0.00	30.061 
01:25	62.7	62.7	62.7	86	58.4	0	0	---	0.00	30.061 
01:30	62.6	62.6	62.6	86	58.3	0	0	---	0.00	30.067 
01:35	62.6	62.6	62.6	86	58.3	0	0	---	0.00	30.067 
01:40	62.4	62.4	62.4	86	58.2	0	0	---	0.00	30.067 
01:45	62.3	62.3	62.3	87	58.4	0	0	---	0.00	30.074 
01:50	62.3	62.3	62.3	87	58.4	0	0	---	0.00	30.074 
01:55	62.1	62.1	62.1	88	58.5	0	0	---	0.00	30.074 
02:00	62.0	62.0	62.0	88	58.4	0	0	---	0.00	30.073 
02:05	61.8	61.8	61.8	88	58.2	0	0	---	0.00	30.073 
02:10	61.6	61.6	61.6	88	58.0	0	0	---	0.00	30.073 
02:15	61.5	61.5	61.5	89	58.2	0	0	---	0.00	30.077 
02:20	61.5	61.5	61.5	89	58.2	0	0	---	0.00	30.077 
02:25	61.3	61.3	61.3	89	58.0	0	0	---	0.00	30.077 
02:30	61.2	61.2	61.2	89	57.9	0	0	---	0.00	30.080 
02:35	61.0	61.0	61.0	90	58.0	0	0	---	0.00	30.080 
02:40	60.9	60.9	60.9	90	57.9	0	0	---	0.00	30.080 
02:45	60.9	60.9	60.9	90	57.9	0	0	---	0.00	30.078 
02:50	60.7	60.7	60.7	90	57.7	0	0	---	0.00	30.078 
02:55	60.7	60.7	60.7	91	58.1	0	0	---	0.00	30.078 
03:00	60.5	60.5	60.5	91	57.9	0	0	---	0.00	30.079 
03:05	60.5	60.5	60.5	91	57.9	0	0	---	0.00	30.079 
03:10	60.4	60.4	60.4	91	57.8	0	0	---	0.00	30.079 
03:15	60.2	60.2	60.2	91	57.6	0	0	---	0.00	30.082 
03:20	60.1	60.1	60.1	91	57.5	0	0	---	0.00	30.082 
03:25	60.1	60.1	60.1	91	57.5	0	0	---	0.00	30.082 
03:30	59.9	59.9	59.9	92	57.6	0	0	---	0.00	30.082 
03:35	59.9	59.9	59.9	92	57.6	0	0	---	0.00	30.082 
03:40	59.9	59.9	59.9	92	57.6	0	0	---	0.00	30.082 
03:45	59.9	59.9	59.9	92	57.6	0	0	---	0.00	30.084 
03:50	59.8	59.8	59.8	92	57.5	0	0	---	0.00	30.084 
03:55	59.8	59.8	59.8	92	57.5	0	0	---	0.00	30.084 
04:00	59.6	59.6	59.6	92	57.3	0	0	---	0.00	30.086 
04:05	59.6	59.6	59.6	92	57.3	0	0	---	0.00	30.086 
04:10	59.6	59.6	59.6	92	57.3	0	0	---	0.00	30.086 
04:15	59.5	59.5	59.5	92	57.2	0	0	---	0.00	30.083 
04:20	59.5	59.5	59.5	92	57.2	0	0	---	0.00	30.083 
04:25	59.5	59.5	59.5	92	57.2	0	0	---	0.00	30.083 
04:30	59.5	59.5	59.5	92	57.2	0	0	---	0.00	30.081 
04:35	59.3	59.3	59.3	92	57.0	0	0	---	0.00	30.081 
04:40	59.3	59.3	59.3	92	57.0	0	0	---	0.00	30.081 
04:45	59.2	59.2	59.2	92	56.9	0	0	---	0.00	30.078 
04:50	59.2	59.2	59.2	93	57.2	0	0	---	0.00	30.078 
04:55	59.2	59.2	59.2	93	57.2	0	0	---	0.00	30.078 
05:00	59.3	59.3	59.3	93	57.3	0	0	---	0.00	30.078 
05:05	59.3	59.3	59.3	93	57.3	0	0	---	0.00	30.078 
05:10	59.2	59.2	59.2	93	57.2	0	0	---	0.00	30.078 
05:15	59.2	59.2	59.2	93	57.2	0	0	---	0.00	30.082 
05:20	59.0	59.0	59.0	93	57.0	0	0	---	0.00	30.082 
05:25	59.0	59.0	59.0	93	57.0	0	0	---	0.00	30.082 
05:30	59.0	59.0	59.0	93	57.0	0	0	---	0.00	30.085 
05:35	59.0	59.0	59.0	93	57.0	0	0	---	0.00	30.085 
05:40	59.0	59.0	59.0	93	57.0	0	0	---	0.00	30.085 
05:45	58.9	58.9	58.9	93	56.9	0	0	---	0.00	30.092 
05:50	58.9	58.9	58.9	93	56.9	0	0	---	0.00	30.092 
05:55	58.9	58.9	58.9	93	56.9	0	0	---	0.00	30.092 
06:00	58.9	58.9	58.9	94	57.2	0	0	---	0.00	30.094 
06:05	58.7	58.7	58.7	94	57.0	0	0	---	0.00	30.094 
06:10	58.7	58.7	58.7	94	57.0	0	0	---	0.00	30.094 
06:15	58.6	58.6	58.6	94	56.9	0	0	---	0.00	30.094 
06:20	58.4	58.4	58.4	94	56.7	0	0	---	0.00	30.094 
06:25	58.3	58.3	58.3	94	56.6	0	0	---	0.00	30.094 
06:30	58.3	58.3	58.3	94	56.6	0	0	---	0.00	30.091 
06:35	58.3	58.3	58.3	94	56.6	0	0	---	0.00	30.091 
06:40	58.3	58.3	58.3	94	56.6	0	0	---	0.00	30.091 
06:45	58.3	58.3	58.3	94	56.6	0	0	---	0.00	30.096 
06:50	58.1	58.1	58.1	94	56.4	0	0	---	0.00	30.096 
06:55	58.1	58.1	58.1	94	56.4	0	0	---	0.00	30.096 
07:00	58.1	58.1	58.1	94	56.4	0	0	---	0.00	30.098 
07:05	58.1	58.1	58.1	94	56.4	0	0	---	0.00	30.098 
07:10	58.1	58.1	58.1	94	56.4	0	0	---	0.00	30.098 
07:15	58.1	58.1	58.1	94	56.4	0	0	---	0.00	30.100 
07:20	58.1	58.1	58.1	94	56.4	0	0	---	0.00	30.100 
07:25	58.1	58.1	58.1	94	56.4	0	0	---	0.00	30.100 
07:30	58.3	58.3	58.3	94	56.6	0	0	---	0.00	30.100 
07:35	58.4	58.4	58.4	94	56.7	0	0	---	0.00	30.100 
07:40	58.7	58.7	58.7	95	57.3	0	0	---	0.00	30.100 
07:45	59.0	59.0	59.0	95	57.6	0	0	---	0.00	30.100 
07:50	59.6	59.6	59.6	95	58.2	0	0	---	0.00	30.100 
07:55	60.1	60.1	60.1	95	58.7	0	0	---	0.00	30.100 
08:00	60.5	60.5	60.5	95	59.1	0	0	---	0.00	30.109 
08:05	60.9	60.9	60.9	95	59.5	0	0	---	0.00	30.109 
08:10	61.8	61.8	61.8	96	60.6	0	0	---	0.00	30.109 
08:15	62.9	62.9	62.9	95	61.4	0	1	22	0.00	30.107 
08:20	63.9	63.9	63.9	93	61.8	0	1	22	0.00	30.107 
08:25	64.7	64.7	64.7	92	62.3	0	0	---	0.00	30.107 
08:30	65.3	65.3	65.3	91	62.6	0	0	---	0.00	30.113 
08:35	66.1	66.1	66.1	88	62.4	0	0	---	0.00	30.113 
08:40	67.3	67.3	67.3	84	62.3	0	0	---	0.00	30.113 
08:45	68.4	68.4	68.4	79	61.6	0	0	---	0.00	30.109 
08:50	69.4	69.4	69.4	76	61.5	0	0	---	0.00	30.109 
08:55	70.4	70.4	70.4	73	61.3	0	0	---	0.00	30.109 
09:00	71.1	71.1	71.1	71	61.2	0	0	---	0.00	30.102 
09:05	71.6	71.6	71.6	69	60.9	0	0	---	0.00	30.102 
09:10	71.6	71.6	71.6	71	61.7	0	0	---	0.00	30.102 
09:15	71.8	71.8	71.8	71	61.9	0	0	---	0.00	30.099 
09:20	72.3	72.3	72.3	69	61.5	0	0	---	0.00	30.099 
09:25	72.7	72.7	72.7	67	61.1	0	0	---	0.00	30.099 
09:30	73.2	73.2	73.2	67	61.6	0	0	---	0.00	30.097 
09:35	73.7	73.7	73.7	67	62.0	0	1	22	0.00	30.097 
09:40	74.0	74.0	74.0	66	61.9	0	0	---	0.00	30.097 
09:45	74.6	74.6	74.6	64	61.6	0	0	---	0.00	30.097 
09:50	75.4	75.4	77.5	63	61.9	0	0	---	0.00	30.097 
09:55	76.1	76.1	78.1	61	61.7	0	0	---	0.00	30.097 
10:00	76.8	76.8	78.6	60	61.8	0	0	---	0.00	30.096 
10:05	77.4	77.4	79.1	57	61.0	0	0	---	0.00	30.096 
10:10	77.4	77.4	79.1	59	61.9	0	0	---	0.00	30.096 
10:15	77.6	77.6	79.3	59	62.1	0	0	---	0.00	30.094 
10:20	78.1	78.1	79.6	56	61.1	0	0	---	0.00	30.094 
10:25	78.6	78.6	80.1	57	62.1	0	2	22	0.00	30.094 
10:30	78.8	78.8	80.2	56	61.8	0	1	22	0.00	30.098 
10:35	79.2	79.2	80.6	56	62.1	0	1	270	0.00	30.098 
10:40	79.8	79.8	80.9	53	61.1	0	2	270	0.00	30.098 
10:45	80.1	80.1	81.0	51	60.3	1	3	270	0.00	30.096 
10:50	80.5	80.5	81.3	50	60.1	0	2	315	0.00	30.096 
10:55	81.1	81.1	81.8	50	60.7	0	2	112	0.00	30.096 
11:00	81.4	81.4	81.9	48	59.8	0	2	112	0.00	30.099 
11:05	82.0	82.0	82.2	46	59.1	0	3	112	0.00	30.099 
11:10	82.0	82.0	81.9	44	57.9	0	2	112	0.00	30.099 
11:15	82.6	82.6	82.7	45	59.1	1	3	135	0.00	30.100 
11:20	82.4	82.4	82.6	46	59.5	1	4	90	0.00	30.100 
11:25	82.0	82.0	81.8	43	57.3	1	3	90	0.00	30.100 
11:30	81.6	81.6	81.6	44	57.5	2	4	90	0.00	30.092 
11:35	80.9	80.9	81.0	44	56.9	1	4	270	0.00	30.092 
11:40	80.7	80.7	81.0	46	58.0	1	4	292	0.00	30.092 
11:45	80.7	80.7	80.9	45	57.4	1	2	292	0.00	30.091 
11:50	80.9	80.9	81.1	45	57.5	1	3	248	0.00	30.091 
11:55	81.1	81.1	81.4	46	58.3	1	4	112	0.00	30.091 
12:00	81.6	81.6	81.7	45	58.2	0	4	68	0.00	30.090 
12:05	82.2	82.2	82.4	46	59.3	0	2	68	0.00	30.090 
12:10	82.8	82.8	82.6	43	58.0	1	5	292	0.00	30.090 
12:15	83.2	83.2	83.1	44	59.0	1	4	270	0.00	30.083 
12:20	83.2	83.2	83.0	43	58.3	1	3	292	0.00	30.083 
12:25	83.6	83.6	83.2	42	58.0	1	3	248	0.00	30.083 
12:30	83.4	83.4	83.0	42	57.9	1	5	90	0.00	30.077 
12:35	83.2	83.2	83.1	44	59.0	0	3	90	0.00	30.077 
12:40	83.6	83.6	83.4	43	58.7	1	4	90	0.00	30.077 
12:45	83.4	83.4	83.2	43	58.5	1	3	270	0.00	30.074 
12:50	83.0	83.0	82.3	40	56.2	1	4	270	0.00	30.074 
12:55	83.0	83.0	82.6	42	57.5	1	5	90	0.00	30.074 
13:00	83.4	83.4	82.9	41	57.2	2	5	248	0.00	30.071 
13:05	83.8	83.8	83.2	41	57.6	1	6	90	0.00	30.071 
13:10	83.8	83.8	83.2	41	57.6	1	5	338	0.00	30.071 
13:15	83.6	83.6	83.4	43	58.7	1	4	135	0.00	30.065 
13:20	83.2	83.2	82.7	41	57.0	1	4	292	0.00	30.065 
13:25	83.8	83.8	83.2	41	57.6	1	3	90	0.00	30.065 
13:30	84.3	84.3	83.6	40	57.3	1	4	338	0.00	30.060 
13:35	84.7	84.7	84.0	40	57.7	1	5	45	0.00	30.060 
13:40	84.3	84.3	83.4	39	56.6	1	4	292	0.00	30.060 
13:45	83.8	83.8	83.2	41	57.6	1	4	292	0.00	30.061 
13:50	82.8	82.8	82.4	42	57.3	1	4	292	0.00	30.061 
13:55	82.4	82.4	81.9	41	56.3	1	4	270	0.00	30.061 
14:00	82.4	82.4	82.0	42	57.0	2	5	270	0.00	30.061 
14:05	82.6	82.6	82.4	43	57.8	1	4	270	0.00	30.061 
14:10	83.2	83.2	83.0	43	58.3	1	3	315	0.00	30.061 
14:15	84.0	84.0	83.4	41	57.7	2	7	292	0.00	30.060 
14:20	84.7	84.7	84.0	40	57.7	1	4	68	0.00	30.060 
14:25	84.9	84.9	84.6	42	59.2	2	5	248	0.00	30.060 
14:30	84.5	84.5	83.8	40	57.5	2	5	270	0.00	30.059 
14:35	83.6	83.6	83.2	42	58.0	1	4	270	0.00	30.059 
14:40	83.8	83.8	83.6	43	58.9	1	4	338	0.00	30.059 
14:45	83.8	83.8	83.4	42	58.2	0	2	45	0.00	30.059 
14:50	83.4	83.4	83.3	44	59.2	0	2	225	0.00	30.059 
14:55	83.2	83.2	83.1	44	59.0	1	2	225	0.00	30.059 
15:00	82.4	82.4	82.0	42	57.0	2	4	248	0.00	30.056 
15:05	82.2	82.2	82.1	44	58.1	1	3	270	0.00	30.056 
15:10	82.4	82.4	81.9	41	56.3	1	3	225	0.00	30.056 
15:15	83.0	83.0	82.5	41	56.8	2	5	270	0.00	30.051 
15:20	83.4	83.4	83.2	43	58.5	1	4	270	0.00	30.051 
15:25	84.0	84.0	83.3	40	57.0	1	4	22	0.00	30.051 
15:30	84.3	84.3	83.8	41	58.0	1	5	270	0.00	30.047 
15:35	84.3	84.3	83.6	40	57.3	1	3	248	0.00	30.047 
15:40	84.1	84.1	83.9	43	59.2	0	3	68	0.00	30.047 
15:45	84.7	84.7	84.4	42	59.0	1	6	68	0.00	30.044 
15:50	85.1	85.1	84.6	41	58.7	1	3	292	0.00	30.044 
15:55	85.3	85.3	85.0	42	59.6	0	2	112	0.00	30.044 
16:00	85.1	85.1	84.3	39	57.3	1	3	112	0.00	30.037 
16:05	84.5	84.5	83.6	39	56.8	1	5	270	0.00	30.037 
16:10	84.1	84.1	83.7	42	58.5	0	2	68	0.00	30.037 
16:15	84.3	84.3	83.8	41	58.0	1	5	270	0.00	30.035 
16:20	84.7	84.7	83.5	37	55.5	2	4	270	0.00	30.035 
16:25	84.7	84.7	83.5	37	55.5	2	5	270	0.00	30.035 
16:30	85.1	85.1	83.8	36	55.1	1	5	45	0.00	30.034 
16:35	85.5	85.5	84.0	35	54.7	1	3	248	0.00	30.034 
16:40	85.5	85.5	84.2	36	55.5	1	2	248	0.00	30.034 
16:45	85.5	85.5	84.5	38	57.0	1	5	248	0.00	30.032 
16:50	84.9	84.9	83.7	37	55.7	1	3	270	0.00	30.032 
16:55	84.3	84.3	83.4	39	56.6	0	1	248	0.00	30.032 
17:00	84.0	84.0	83.3	40	57.0	0	2	315	0.00	30.032 
17:05	83.6	83.6	83.4	43	58.7	0	2	315	0.00	30.032 
17:10	83.8	83.8	83.4	42	58.2	1	5	90	0.00	30.032 
17:15	84.1	84.1	83.2	39	56.4	1	3	90	0.00	30.031 
17:20	84.0	84.0	83.3	40	57.0	1	3	248	0.00	30.031 
17:25	83.8	83.8	83.1	40	56.9	1	3	248	0.00	30.031 
17:30	83.2	83.2	82.5	40	56.3	1	2	248	0.00	30.027 
17:35	83.4	83.4	82.9	41	57.2	0	2	248	0.00	30.027 
17:40	83.6	83.6	82.9	40	56.7	1	2	292	0.00	30.027 
17:45	83.4	83.4	82.9	41	57.2	1	3	22	0.00	30.022 
17:50	83.0	83.0	82.5	41	56.8	1	3	270	0.00	30.022 
17:55	82.8	82.8	82.0	39	55.3	1	4	270	0.00	30.022 
18:00	82.8	82.8	82.0	39	55.3	1	5	270	0.00	30.019 
18:05	83.0	83.0	82.2	39	55.5	1	3	270	0.00	30.019 
18:10	83.2	83.2	82.5	40	56.3	1	3	270	0.00	30.019 
18:15	83.2	83.2	82.4	39	55.6	0	2	270	0.00	30.019 
18:20	83.0	83.0	82.2	39	55.5	1	3	270	0.00	30.019 
18:25	83.0	83.0	82.3	40	56.2	1	3	270	0.00	30.019 
18:30	82.8	82.8	82.3	41	56.7	1	4	292	0.00	30.018 
18:35	82.8	82.8	82.2	40	56.0	1	3	270	0.00	30.018 
18:40	82.2	82.2	81.6	40	55.4	1	3	270	0.00	30.018 
18:45	82.0	82.0	81.6	41	55.9	1	3	270	0.00	30.017 
18:50	82.0	82.0	81.7	42	56.6	0	2	270	0.00	30.017 
18:55	82.0	82.0	81.8	43	57.3	1	3	270	0.00	30.017 
19:00	81.8	81.8	81.6	43	57.1	1	3	270	0.00	30.013 
19:05	81.8	81.8	81.6	43	57.1	0	2	270	0.00	30.013 
19:10	81.8	81.8	81.6	43	57.1	1	4	292	0.00	30.013 
19:15	81.6	81.6	81.3	42	56.3	1	3	292	0.00	30.009 
19:20	81.2	81.2	81.1	43	56.5	0	3	292	0.00	30.009 
19:25	81.1	81.1	81.1	44	57.1	0	1	292	0.00	30.009 
19:30	81.1	81.1	81.1	44	57.1	0	2	292	0.00	30.005 
19:35	80.9	80.9	80.9	43	56.3	0	2	292	0.00	30.005 
19:40	80.7	80.7	80.7	43	56.1	1	3	292	0.00	30.005 
19:45	80.3	80.3	80.5	44	56.4	0	3	292	0.00	30.009 
19:50	80.1	80.1	80.3	44	56.2	1	2	315	0.00	30.009 
19:55	79.9	79.9	80.3	45	56.6	0	2	315	0.00	30.009 
20:00	79.8	79.8	80.1	44	55.9	0	2	315	0.00	30.009 
20:05	79.6	79.6	80.0	45	56.4	0	1	315	0.00	30.009 
20:10	79.4	79.4	80.0	46	56.8	0	2	315	0.00	30.009 
20:15	79.2	79.2	79.8	46	56.6	0	1	315	0.00	29.996 
20:20	79.0	79.0	79.8	47	57.0	0	0	---	0.00	29.996 
20:25	78.6	78.6	79.5	48	57.2	0	0	---	0.00	29.996 
20:30	78.5	78.5	79.5	49	57.7	0	0	---	0.00	29.996 
20:35	78.1	78.1	79.3	50	57.9	0	1	315	0.00	29.996 
20:40	77.7	77.7	79.0	50	57.6	0	0	---	0.00	29.996 
20:45	77.4	77.4	78.9	51	57.8	0	0	---	0.00	29.997 
20:50	77.0	77.0	78.7	52	58.0	0	0	---	0.00	29.997 
20:55	76.7	76.7	78.5	54	58.8	0	0	---	0.00	29.997 
21:00	76.3	76.3	78.3	54	58.4	0	0	---	0.00	29.998 
21:05	76.0	76.0	78.1	54	58.1	0	0	---	0.00	29.998 
21:10	75.6	75.6	77.8	55	58.3	0	0	---	0.00	29.998 
21:15	75.3	75.3	77.7	56	58.5	0	0	---	0.00	29.993 
21:20	74.9	74.9	74.9	58	59.1	0	0	---	0.00	29.993 
21:25	74.6	74.6	74.6	58	58.8	0	0	---	0.00	29.993 
21:30	74.2	74.2	74.2	59	58.9	0	0	---	0.00	29.995 
21:35	73.9	73.9	73.9	61	59.6	0	0	---	0.00	29.995 
21:40	73.5	73.5	73.5	61	59.2	0	0	---	0.00	29.995 
21:45	73.2	73.2	73.2	62	59.4	0	0	---	0.00	29.996 
21:50	72.8	72.8	72.8	62	59.0	0	0	---	0.00	29.996 
21:55	72.5	72.5	72.5	63	59.2	0	0	---	0.00	29.996 
22:00	72.3	72.3	72.3	63	59.0	0	0	---	0.00	29.998 
22:05	72.1	72.1	72.1	64	59.2	0	0	---	0.00	29.998 
22:10	72.0	72.0	72.0	65	59.6	0	0	---	0.00	29.998 
22:15	71.8	71.8	71.8	66	59.8	0	0	---	0.00	29.994 
22:20	71.8	71.8	71.8	66	59.8	0	0	---	0.00	29.994 
22:25	71.6	71.6	71.6	66	59.6	0	0	---	0.00	29.994 
22:30	71.5	71.5	71.5	66	59.5	0	0	---	0.00	29.993 
22:35	71.3	71.3	71.3	68	60.2	0	0	---	0.00	29.993 
22:40	71.1	71.1	71.1	69	60.4	0	0	---	0.00	29.993 
22:45	70.9	70.9	70.9	69	60.2	0	0	---	0.00	29.992 
22:50	70.6	70.6	70.6	70	60.3	0	0	---	0.00	29.992 
22:55	70.4	70.4	70.4	70	60.1	0	0	---	0.00	29.992 
23:00	70.3	70.3	70.3	71	60.4	0	0	---	0.00	29.994 
23:05	70.1	70.1	70.1	72	60.6	0	0	---	0.00	29.994 
23:10	69.8	69.8	69.8	73	60.7	0	0	---	0.00	29.994 
23:15	69.6	69.6	69.6	73	60.6	0	0	---	0.00	29.992 
23:20	69.4	69.4	69.4	74	60.7	0	0	---	0.00	29.992 
23:25	69.4	69.4	69.4	74	60.7	0	0	---	0.00	29.992 
23:30	69.3	69.3	69.3	74	60.6	0	0	---	0.00	29.992 
23:35	69.3	69.3	69.3	75	61.0	0	0	---	0.00	29.992 
23:40	69.1	69.1	69.1	75	60.8	0	0	---	0.00	29.992 
23:45	69.1	69.1	69.1	75	60.8	0	0	---	0.00	29.991 
23:50	68.9	68.9	68.9	75	60.6	0	0	---	0.00	29.991 
23:55	68.9	68.9	68.9	76	61.0	0	0	---	0.00	29.991 

CoCoRaHS
IN-AL-39
A2 Web Hosting
Creative Commons License
GoDaddy
search engine by freefind advanced

loaded 2018-11-15 16:05:18 • last modified 2010-11-18 10:43:29
Privacy PolicyDisclaimer
• wx.awcolley.com is powered by PmWiki v.2002016 •
• all content (unless otherwise noted) © 2018 A W Colley